Time;durP1;ratioP1;P1;durP2;ratioP2;P2;SDS_P1;SDS_P2;PMS_P1;PMS_P2;Temp;Humidity;BMP_temperature;BMP_pressure;BME280_temperature;BME280_humidity;BME280_pressure;Samples;Min_cycle;Max_cycle;Signal;HPM_P1;HPM_P2
2022/08/28 08:26:51;;;;;;;8.00;2.33;;;19.70;99.90;;;;;;6171581;22;1304349;-88
2022/08/28 08:29:17;;;;;;;4.18;2.05;;;20.10;1.00;;;;;;6177943;23;20407;-87
2022/08/28 08:31:42;;;;;;;10.18;2.35;;;20.10;99.90;;;;;;6177546;23;20182;-87
2022/08/28 08:34:09;;;;;;;5.90;2.20;;;20.30;99.90;;;;;;6177944;23;20268;-87
2022/08/28 08:36:39;;;;;;;9.02;2.58;;;20.60;1.00;;;;;;6177928;23;20166;-87
2022/08/28 08:39:06;;;;;;;6.65;2.30;;;19.40;99.90;;;;;;6177692;23;20158;-87
2022/08/28 08:41:46;;;;;;;9.50;2.83;;;19.70;99.40;;;;;;6204472;23;20154;-87
2022/08/28 08:44:24;;;;;;;7.32;2.22;;;19.80;1.00;;;;;;6177894;23;20178;-86
2022/08/28 08:47:23;;;;;;;7.50;2.33;;;19.90;99.90;;;;;;6203855;23;20174;-87
2022/08/28 08:50:01;;;;;;;6.32;2.53;;;20.10;1.00;;;;;;6204743;23;20176;-86
2022/08/28 08:52:48;;;;;;;5.07;2.42;;;20.40;99.90;;;;;;6177320;23;20201;-86
2022/08/28 08:55:27;;;;;;;7.35;2.60;;;20.60;99.90;;;;;;6204099;23;20138;-87
2022/08/28 08:58:04;;;;;;;7.63;2.10;;;20.60;1.00;;;;;;6177118;23;20466;-86
2022/08/28 09:00:36;;;;;;;8.70;2.60;;;20.30;99.90;;;;;;6177793;23;20150;-86
2022/08/28 09:03:11;;;;;;;5.80;2.22;;;20.40;1.00;;;;;;6177340;23;20182;-87
2022/08/28 09:05:46;;;;;;;7.88;2.45;;;20.20;1.00;;;;;;6177946;23;20229;-86
2022/08/28 09:08:25;;;;;;;5.85;2.42;;;20.50;1.00;;;;;;6177458;23;20153;-87
2022/08/28 09:11:01;;;;;;;11.50;2.90;;;20.40;1.00;;;;;;6177564;23;20232;-87
2022/08/28 09:14:04;;;;;;;6.78;2.60;;;20.50;1.00;;;;;;6177194;23;20178;-87
2022/08/28 09:16:41;;;;;;;7.15;2.13;;;20.30;1.00;;;;;;6177745;23;20248;-88
2022/08/28 09:19:10;;;;;;;6.45;2.70;;;20.30;1.00;;;;;;6179776;23;20539;-89
2022/08/28 09:35:41;;;;;;;6.38;2.17;;;20.30;23.60;;;;;;6216802;23;20200;-91
2022/08/28 09:38:22;;;;;;;5.30;2.05;;;19.50;99.90;;;;;;6189457;23;20362;-89
2022/08/28 09:43:35;;;;;;;4.78;2.40;;;19.70;1.00;;;;;;6218735;23;20258;-91
2022/08/28 09:46:21;;;;;;;5.35;2.30;;;19.50;99.90;;;;;;6191744;23;20229;-90
2022/08/28 09:48:51;;;;;;;6.82;2.25;;;19.60;1.00;;;;;;6188685;23;20580;-91
2022/08/28 09:51:19;;;;;;;6.50;2.55;;;19.40;1.00;;;;;;6187781;23;20174;-89
2022/08/28 09:53:51;;;;;;;5.07;2.33;;;19.90;1.00;;;;;;6187263;23;20174;-91
2022/08/28 09:56:19;;;;;;;8.93;2.40;;;20.10;99.90;;;;;;6188045;23;20166;-90
2022/08/28 09:58:48;;;;;;;5.90;2.50;;;20.00;1.00;;;;;;6188265;23;20158;-91
2022/08/28 10:01:17;;;;;;;6.53;2.05;;;20.20;99.90;;;;;;6188551;23;20185;-90
2022/08/28 10:04:10;;;;;;;7.57;2.15;;;20.30;99.90;;;;;;6187737;23;20188;-91
2022/08/28 10:06:36;;;;;;;5.90;2.22;;;20.40;99.90;;;;;;6187726;23;20234;-91
2022/08/28 10:09:14;;;;;;;5.95;2.03;;;20.80;1.00;;;;;;6188144;23;20577;-91
2022/08/28 10:11:48;;;;;;;4.28;2.17;;;20.70;1.00;;;;;;6188036;23;20178;-91
2022/08/28 10:14:38;;;;;;;6.43;2.60;;;20.50;1.00;;;;;;6187810;23;20251;-91
2022/08/28 10:17:28;;;;;;;7.38;2.53;;;20.70;1.00;;;;;;6187594;23;20158;-90
2022/08/28 10:20:09;;;;;;;6.55;2.35;;;20.90;1.00;;;;;;6186739;23;20147;-90
2022/08/28 10:22:55;;;;;;;5.07;2.47;;;21.00;1.00;;;;;;6187594;23;20394;-91
2022/08/28 10:25:37;;;;;;;5.20;2.17;;;20.90;1.00;;;;;;6187575;23;20185;-91
2022/08/28 10:28:15;;;;;;;8.00;2.42;;;21.10;1.00;;;;;;6188372;23;20162;-91
2022/08/28 10:30:53;;;;;;;4.30;2.20;;;21.00;99.90;;;;;;6187896;23;20154;-91
2022/08/28 10:33:31;;;;;;;5.85;2.38;;;20.90;99.90;;;;;;6187024;23;20182;-91
2022/08/28 10:36:01;;;;;;;6.47;2.33;;;;;;;;;;6187899;23;20147;-91
2022/08/28 10:38:35;;;;;;;4.57;2.20;;;20.80;99.90;;;;;;6187176;23;20197;-91
2022/08/28 10:41:01;;;;;;;7.97;2.50;;;20.80;1.00;;;;;;6187341;23;20208;-91
2022/08/28 10:43:37;;;;;;;6.68;2.13;;;20.80;99.90;;;;;;6187599;23;20529;-91
2022/08/28 10:46:10;;;;;;;6.45;2.53;;;20.80;99.90;;;;;;6181632;23;20154;-92
2022/08/28 10:48:42;;;;;;;4.40;2.00;;;20.90;99.90;;;;;;6177570;23;20151;-92
2022/08/28 10:51:34;;;;;;;5.75;2.20;;;21.00;1.00;;;;;;6177441;23;20161;-91
2022/08/28 10:54:09;;;;;;;4.65;2.33;;;21.30;99.90;;;;;;6177107;23;20178;-92
2022/08/28 10:56:50;;;;;;;5.75;2.28;;;21.10;99.90;;;;;;6179061;23;20182;-89
2022/08/28 10:59:17;;;;;;;7.63;2.53;;;21.00;99.90;;;;;;6180413;23;20154;-88
2022/08/28 11:01:45;;;;;;;7.45;2.47;;;21.20;99.90;;;;;;6180100;23;20217;-93
2022/08/28 11:04:31;;;;;;;6.50;2.30;;;21.30;93.40;;;;;;6181561;23;20269;-93
2022/08/28 11:07:02;;;;;;;5.13;2.08;;;21.20;49.60;;;;;;6176685;23;20488;-90
2022/08/28 11:09:41;;;;;;;8.18;2.45;;;21.20;99.90;;;;;;6179510;23;20158;-90
2022/08/28 11:12:27;;;;;;;6.90;1.95;;;21.30;60.80;;;;;;6178865;23;20186;-91
2022/08/28 11:14:52;;;;;;;5.88;2.10;;;21.40;1.00;;;;;;6179052;23;20158;-90
2022/08/28 11:17:21;;;;;;;6.72;2.25;;;21.40;1.00;;;;;;6179402;23;20473;-90
2022/08/28 11:20:11;;;;;;;6.13;2.28;;;21.40;1.00;;;;;;6182158;23;20564;-92
2022/08/28 11:22:43;;;;;;;5.38;2.03;;;21.40;1.00;;;;;;6180235;23;20158;-87
2022/08/28 11:25:31;;;;;;;4.93;2.33;;;21.60;1.00;;;;;;6179113;23;20155;-90
2022/08/28 11:28:23;;;;;;;4.50;1.88;;;21.50;1.00;;;;;;6178708;23;20159;-87
2022/08/28 11:31:05;;;;;;;5.68;2.33;;;21.70;1.00;;;;;;6178990;23;20161;-89
2022/08/28 11:33:49;;;;;;;4.53;2.20;;;21.80;1.00;;;;;;6179035;23;20423;-89
2022/08/28 11:36:18;;;;;;;6.18;2.30;;;;;;;;;;6179838;23;20150;-90
2022/08/28 11:38:43;;;;;;;4.78;2.15;;;21.70;1.00;;;;;;6178416;23;20181;-88
2022/08/28 11:41:28;;;;;;;4.65;2.35;;;21.90;1.00;;;;;;6179389;23;20630;-89
2022/08/28 11:44:11;;;;;;;8.77;2.65;;;21.90;1.00;;;;;;6179113;23;20754;-87
2022/08/28 11:46:46;;;;;;;6.82;2.33;;;21.90;1.00;;;;;;6178587;23;20159;-86
2022/08/28 11:49:30;;;;;;;4.75;2.10;;;21.90;1.00;;;;;;6178435;23;20211;-86
2022/08/28 11:52:14;;;;;;;6.90;2.88;;;22.20;1.00;;;;;;6178359;23;20273;-90
2022/08/28 11:55:11;;;;;;;7.03;2.22;;;22.20;1.00;;;;;;6178531;23;20438;-88
2022/08/28 11:57:46;;;;;;;6.22;2.00;;;22.10;1.00;;;;;;6178667;23;20164;-89
2022/08/28 12:00:49;;;;;;;5.13;2.20;;;22.20;1.00;;;;;;6179474;23;20634;-89
2022/08/28 12:03:26;;;;;;;7.35;2.50;;;22.20;1.00;;;;;;6179162;23;20186;-89
2022/08/28 12:05:55;;;;;;;6.20;1.92;;;22.40;1.00;;;;;;6179155;23;20161;-89
2022/08/28 12:08:51;;;;;;;7.35;2.10;;;22.50;1.00;;;;;;6178858;23;20170;-89
2022/08/28 12:11:39;;;;;;;4.30;2.10;;;22.50;1.00;;;;;;6179906;23;20224;-87
2022/08/28 12:14:10;;;;;;;4.40;2.05;;;22.50;1.00;;;;;;6179152;23;20179;-88
2022/08/28 12:16:57;;;;;;;4.93;1.77;;;22.60;1.00;;;;;;6178658;23;20205;-90
2022/08/28 12:19:49;;;;;;;5.38;2.17;;;22.80;99.90;;;;;;6178791;23;20162;-88
2022/08/28 12:22:19;;;;;;;4.75;2.20;;;22.80;1.00;;;;;;6178512;23;20159;-87
2022/08/28 12:24:58;;;;;;;5.85;1.80;;;22.80;99.90;;;;;;6179116;23;20178;-85
2022/08/28 12:27:24;;;;;;;5.85;2.55;;;22.90;99.90;;;;;;6179222;23;20553;-85
2022/08/28 12:29:52;;;;;;;4.80;2.13;;;23.10;99.90;;;;;;6178647;23;20158;-87
2022/08/28 12:32:41;;;;;;;5.95;2.15;;;22.90;99.90;;;;;;6177380;23;20668;-88
2022/08/28 12:35:19;;;;;;;6.28;2.30;;;23.00;99.90;;;;;;6205670;23;20139;-85
2022/08/28 12:37:59;;;;;;;5.22;2.00;;;23.10;99.90;;;;;;6177414;23;20200;-88
2022/08/28 12:40:49;;;;;;;7.28;2.13;;;23.40;99.90;;;;;;6204435;23;20598;-88
2022/08/28 12:43:26;;;;;;;5.22;1.95;;;23.20;99.90;;;;;;6177844;23;20178;-89
2022/08/28 12:45:55;;;;;;;5.75;2.00;;;23.30;99.90;;;;;;6177525;23;20158;-87
2022/08/28 12:48:28;;;;;;;5.53;1.90;;;23.10;99.90;;;;;;6178098;23;20397;-89
2022/08/28 12:50:58;;;;;;;3.97;2.15;;;22.90;99.90;;;;;;6177725;23;20157;-88
2022/08/28 12:53:24;;;;;;;4.20;2.03;;;23.00;99.90;;;;;;6177437;23;20551;-87
2022/08/28 12:55:50;;;;;;;4.32;2.08;;;23.00;99.90;;;;;;6177968;23;20165;-86
2022/08/28 12:58:33;;;;;;;4.00;2.20;;;23.30;99.90;;;;;;6177924;23;20165;-89
2022/08/28 13:01:04;;;;;;;7.22;1.95;;;23.30;99.90;;;;;;6178075;23;20620;-85
2022/08/28 13:03:31;;;;;;;4.57;2.08;;;23.30;99.90;;;;;;6177365;23;20242;-88
2022/08/28 13:06:05;;;;;;;4.50;2.10;;;23.50;99.90;;;;;;6177874;23;20231;-88
2022/08/28 13:08:32;;;;;;;6.43;2.08;;;23.50;99.90;;;;;;6177704;23;20533;-86
2022/08/28 13:10:58;;;;;;;4.57;1.90;;;23.50;99.90;;;;;;6177970;23;20212;-89
2022/08/28 13:13:37;;;;;;;5.20;2.00;;;23.50;99.90;;;;;;6177953;23;20174;-90
2022/08/28 13:16:04;;;;;;;4.65;1.90;;;23.60;99.90;;;;;;6177485;23;20162;-86
2022/08/28 13:18:39;;;;;;;4.35;1.80;;;23.60;99.90;;;;;;6175979;23;20158;-89
2022/08/28 13:21:16;;;;;;;6.85;2.05;;;23.60;99.90;;;;;;6177247;23;20164;-88
2022/08/28 13:23:51;;;;;;;4.85;1.92;;;23.50;99.90;;;;;;6176915;23;20197;-86
2022/08/28 13:26:36;;;;;;;4.43;1.90;;;23.50;99.90;;;;;;6177089;23;20181;-89
2022/08/28 13:29:15;;;;;;;4.60;1.92;;;23.40;99.90;;;;;;6176909;23;20209;-85
2022/08/28 13:31:42;;;;;;;5.13;1.90;;;23.60;99.90;;;;;;6177042;23;20190;-89
2022/08/28 13:34:25;;;;;;;5.20;1.90;;;23.60;99.90;;;;;;6176525;23;20565;-88
2022/08/28 13:36:54;;;;;;;3.95;1.77;;;23.60;99.90;;;;;;6177375;23;20158;-87
2022/08/28 13:39:21;;;;;;;4.10;2.22;;;23.80;99.90;;;;;;6177119;23;20174;-88
2022/08/28 13:41:54;;;;;;;4.90;2.03;;;23.80;99.90;;;;;;6177368;23;20193;-88
2022/08/28 13:44:31;;;;;;;4.00;2.03;;;23.90;99.90;;;;;;6177038;23;20185;-88
2022/08/28 13:46:59;;;;;;;4.60;2.00;;;23.90;99.90;;;;;;6177216;23;20165;-89
2022/08/28 13:49:28;;;;;;;4.72;1.98;;;23.90;99.90;;;;;;6204471;23;20709;-88
2022/08/28 13:51:55;;;;;;;3.92;1.85;;;23.90;99.90;;;;;;6204194;23;20317;-87
2022/08/28 13:54:21;;;;;;;4.28;2.10;;;24.00;99.90;;;;;;6177209;23;20181;-90
2022/08/28 13:56:47;;;;;;;6.30;2.00;;;23.90;99.90;;;;;;6177433;23;20158;-89
2022/08/28 13:59:12;;;;;;;4.65;1.88;;;23.90;99.90;;;;;;6177061;23;20688;-90
2022/08/28 14:04:23;;;;;;;4.10;1.75;;;24.00;99.90;;;;;;6204359;23;20200;-90
2022/08/28 14:06:49;;;;;;;4.18;2.00;;;23.80;99.90;;;;;;6177125;23;20662;-89
2022/08/28 14:09:14;;;;;;;3.30;1.75;;;23.80;99.90;;;;;;6177513;23;20159;-89
2022/08/28 14:11:41;;;;;;;4.57;1.90;;;23.70;99.90;;;;;;6176950;23;20565;-89
2022/08/28 14:14:08;;;;;;;7.65;1.98;;;23.70;99.90;;;;;;6180920;23;20630;-85
2022/08/28 14:16:34;;;;;;;4.40;1.58;;;23.60;99.90;;;;;;6178615;23;20162;-87
2022/08/28 14:19:03;;;;;;;5.05;2.08;;;23.60;99.90;;;;;;6177075;23;20630;-88
2022/08/28 14:21:33;;;;;;;6.25;1.95;;;23.60;99.90;;;;;;6176815;23;20162;-86
2022/08/28 14:23:59;;;;;;;4.72;1.90;;;23.50;99.90;;;;;;6176773;23;20230;-86
2022/08/28 14:26:25;;;;;;;6.90;2.00;;;23.50;99.90;;;;;;6176977;23;20599;-87
2022/08/28 14:28:51;;;;;;;3.75;1.70;;;23.40;99.90;;;;;;6177666;23;20618;-86
2022/08/28 14:31:17;;;;;;;4.90;2.20;;;23.40;99.90;;;;;;6178850;23;20166;-86
2022/08/28 14:33:43;;;;;;;5.32;1.90;;;23.40;99.90;;;;;;6179152;23;20170;-90
2022/08/28 14:36:23;;;;;;;3.75;1.88;;;23.60;99.90;;;;;;6178813;23;20158;-89
2022/08/28 14:38:50;;;;;;;3.15;1.80;;;23.50;99.90;;;;;;6178576;23;20178;-91
2022/08/28 14:41:16;;;;;;;7.95;2.40;;;23.60;99.90;;;;;;6178691;23;20162;-88
2022/08/28 14:43:44;;;;;;;6.00;1.55;;;23.50;99.90;;;;;;6205468;23;20170;-90
2022/08/28 14:46:19;;;;;;;2.70;1.50;;;23.40;99.90;;;;;;6178800;23;20158;-90
2022/08/28 14:48:46;;;;;;;3.53;1.60;;;23.40;99.90;;;;;;6205853;23;20614;-90
2022/08/28 14:51:13;;;;;;;4.47;2.08;;;23.50;99.90;;;;;;6178467;23;20234;-90
2022/08/28 14:53:39;;;;;;;6.75;1.90;;;23.50;99.90;;;;;;6178704;23;20183;-89
2022/08/28 14:56:07;;;;;;;4.18;1.58;;;23.60;99.90;;;;;;6179132;23;20162;-90
2022/08/28 14:58:33;;;;;;;4.80;1.70;;;23.60;99.90;;;;;;6179949;23;20189;-88
2022/08/28 15:00:59;;;;;;;5.07;1.80;;;23.60;99.90;;;;;;6188817;23;20147;-88
2022/08/28 15:03:25;;;;;;;3.47;1.70;;;23.50;99.90;;;;;;6188717;23;20201;-88
2022/08/28 15:06:06;;;;;;;2.75;1.58;;;23.20;99.90;;;;;;6188542;23;20162;-89
2022/08/28 15:08:32;;;;;;;3.63;1.85;;;23.00;99.90;;;;;;6215755;23;20165;-91
2022/08/28 15:10:58;;;;;;;3.60;1.88;;;22.90;99.90;;;;;;6189016;23;20162;-89
2022/08/28 15:13:24;;;;;;;4.47;1.70;;;22.90;99.90;;;;;;6188691;23;20200;-89
2022/08/28 15:16:10;;;;;;;3.28;1.80;;;22.90;99.90;;;;;;6189034;23;20284;-89
2022/08/28 15:18:35;;;;;;;4.15;1.80;;;22.80;99.90;;;;;;6188866;23;20155;-90
2022/08/28 15:21:01;;;;;;;5.60;1.70;;;22.90;99.90;;;;;;6189014;23;20154;-89
2022/08/28 15:23:27;;;;;;;4.53;1.92;;;23.00;99.90;;;;;;6188814;23;20441;-88
2022/08/28 15:25:53;;;;;;;4.32;1.70;;;22.90;99.90;;;;;;6188589;23;20154;-89
2022/08/28 15:28:19;;;;;;;3.83;1.65;;;22.90;99.90;;;;;;6188842;23;20493;-89
2022/08/28 15:30:45;;;;;;;4.28;1.90;;;22.70;99.90;;;;;;6188951;23;20213;-89
2022/08/28 15:33:12;;;;;;;3.70;2.08;;;22.80;99.90;;;;;;6188592;23;20248;-90
2022/08/28 15:35:38;;;;;;;5.03;2.13;;;22.80;99.90;;;;;;6214698;23;20489;-88
2022/08/28 15:38:05;;;;;;;2.63;1.63;;;22.70;99.90;;;;;;6187980;23;20257;-89
2022/08/28 15:43:16;;;;;;;4.55;1.73;;;22.70;99.90;;;;;;6192411;23;20220;-88
2022/08/28 15:45:42;;;;;;;5.13;1.67;;;22.60;99.90;;;;;;6188803;23;20166;-88
2022/08/28 15:48:09;;;;;;;2.88;1.60;;;22.50;99.90;;;;;;6188553;23;20606;-89
2022/08/28 15:50:35;;;;;;;5.45;1.92;;;22.70;99.90;;;;;;6164382;23;20615;-89
2022/08/28 15:53:02;;;;;;;7.28;1.73;;;22.40;99.90;;;;;;6214666;23;20239;-89
2022/08/28 15:55:28;;;;;;;3.90;1.80;;;22.40;99.90;;;;;;6188118;23;20158;-89
2022/08/28 15:57:53;;;;;;;4.22;1.60;;;22.40;99.90;;;;;;6186919;23;21032;-91
2022/08/28 16:11:28;;;;;;;3.80;1.67;;;22.30;99.90;;;;;;6035578;23;20153;-92
2022/08/28 16:14:14;;;;;;;3.20;2.00;;;22.30;99.90;;;;;;6063291;23;20212;-92
2022/08/28 16:17:37;;;;;;;6.15;1.92;;;22.30;99.90;;;;;;6061635;23;20161;-90
2022/08/28 16:20:05;;;;;;;4.38;2.15;;;22.20;99.90;;;;;;6062919;23;20168;-91
2022/08/28 16:22:31;;;;;;;5.80;2.20;;;22.10;99.90;;;;;;6063301;23;20307;-90
2022/08/28 16:24:57;;;;;;;5.88;2.13;;;22.20;99.90;;;;;;6134974;23;20162;-92
2022/08/28 16:27:23;;;;;;;3.78;1.70;;;22.00;99.90;;;;;;6179796;23;20162;-91
2022/08/28 16:29:48;;;;;;;4.00;2.00;;;22.00;99.90;;;;;;6179390;23;20162;-91
2022/08/28 16:32:14;;;;;;;4.28;1.83;;;21.90;99.90;;;;;;6179156;23;20189;-91
2022/08/28 16:34:41;;;;;;;6.88;1.92;;;22.10;99.90;;;;;;6178534;23;20182;-90
2022/08/28 16:37:07;;;;;;;4.47;1.67;;;21.70;99.90;;;;;;6205406;23;20436;-92
2022/08/28 16:39:32;;;;;;;3.75;1.67;;;21.60;99.90;;;;;;6182546;23;20147;-93
2022/08/28 16:41:58;;;;;;;3.95;1.60;;;21.70;99.90;;;;;;6181911;23;20169;-91
2022/08/28 16:44:25;;;;;;;3.63;1.90;;;21.50;99.90;;;;;;6181290;23;20182;-91
2022/08/28 16:46:51;;;;;;;5.13;1.80;;;21.60;99.90;;;;;;6178827;23;20169;-89
2022/08/28 16:49:17;;;;;;;4.40;2.00;;;21.40;99.90;;;;;;6180590;23;20282;-89
2022/08/28 16:51:43;;;;;;;4.55;2.00;;;21.50;99.90;;;;;;6181077;23;20228;-92
2022/08/28 16:54:09;;;;;;;4.32;1.77;;;21.50;99.90;;;;;;6181074;23;20174;-92
2022/08/28 16:56:35;;;;;;;7.40;2.17;;;21.70;99.90;;;;;;6180273;23;20158;-91
2022/08/28 16:59:00;;;;;;;5.30;2.00;;;21.20;99.90;;;;;;6179334;23;20190;-90
2022/08/28 17:01:26;;;;;;;4.90;1.95;;;21.00;99.90;;;;;;6181341;23;20173;-92
2022/08/28 17:04:38;;;;;;;5.28;2.20;;;21.20;99.90;;;;;;6183788;23;20179;-92
2022/08/28 17:07:25;;;;;;;4.75;2.28;;;21.00;99.90;;;;;;6165578;23;20252;-90
2022/08/28 17:09:51;;;;;;;5.15;1.90;;;21.10;99.90;;;;;;6182041;23;20606;-91
2022/08/28 17:12:17;;;;;;;5.93;2.47;;;21.00;99.90;;;;;;6179858;23;20191;-92
2022/08/28 17:14:43;;;;;;;5.47;2.03;;;20.70;99.90;;;;;;6180803;23;20178;-90
2022/08/28 17:17:08;;;;;;;4.20;2.35;;;20.80;99.90;;;;;;6180928;23;20154;-92
2022/08/28 17:19:34;;;;;;;4.53;2.20;;;20.70;99.90;;;;;;6178249;23;20490;-90
2022/08/28 17:24:43;;;;;;;3.45;1.90;;;20.70;99.90;;;;;;6204335;23;20461;-88
2022/08/28 17:27:09;;;;;;;5.53;2.28;;;20.40;99.90;;;;;;6177551;23;20157;-89
2022/08/28 17:29:37;;;;;;;3.47;2.33;;;20.50;99.90;;;;;;6177648;23;20200;-90
2022/08/28 17:32:04;;;;;;;7.38;2.50;;;20.40;99.90;;;;;;6177643;23;20244;-90
2022/08/28 17:34:30;;;;;;;4.95;2.38;;;20.30;99.90;;;;;;6177307;23;20204;-90
2022/08/28 17:36:55;;;;;;;4.78;2.47;;;20.20;99.90;;;;;;6177256;23;20489;-89
2022/08/28 17:39:21;;;;;;;5.38;2.50;;;20.20;99.90;;;;;;6177098;23;20182;-89
2022/08/28 17:41:46;;;;;;;4.93;2.50;;;20.20;99.90;;;;;;6177681;23;20598;-88
2022/08/28 17:44:12;;;;;;;5.78;3.45;;;20.60;99.90;;;;;;6177711;23;20546;-89
2022/08/28 17:46:38;;;;;;;4.57;2.60;;;20.20;99.90;;;;;;6177408;23;20162;-89
2022/08/28 17:49:05;;;;;;;6.43;2.80;;;20.60;99.90;;;;;;6177464;23;20184;-89
2022/08/28 17:51:31;;;;;;;4.88;2.85;;;19.80;99.90;;;;;;6176853;23;20534;-88
2022/08/28 17:53:56;;;;;;;5.18;2.92;;;19.70;99.90;;;;;;6203772;23;20241;-88
2022/08/28 17:56:22;;;;;;;7.35;2.60;;;19.80;99.90;;;;;;6177416;23;20555;-89
2022/08/28 17:58:48;;;;;;;5.13;2.40;;;19.50;99.90;;;;;;6177512;23;20603;-89
2022/08/28 18:01:24;;;;;;;6.80;2.67;;;19.50;99.90;;;;;;6177309;23;20166;-89
2022/08/28 18:03:53;;;;;;;5.80;2.80;;;19.40;99.90;;;;;;6203193;23;20525;-89
2022/08/28 18:06:19;;;;;;;5.05;2.80;;;19.40;99.90;;;;;;6203628;23;20434;-89
2022/08/28 18:08:46;;;;;;;3.63;2.70;;;19.50;99.90;;;;;;6177426;23;20454;-89
2022/08/28 18:11:13;;;;;;;6.03;2.83;;;19.20;99.90;;;;;;6176925;23;20158;-88
2022/08/28 18:13:40;;;;;;;6.65;2.65;;;19.20;99.90;;;;;;6176608;23;20205;-90
2022/08/28 18:16:05;;;;;;;6.82;3.08;;;19.00;99.90;;;;;;6177091;23;20158;-89
2022/08/28 18:18:32;;;;;;;5.95;2.90;;;19.10;99.90;;;;;;6177149;23;20216;-88
2022/08/28 18:20:58;;;;;;;5.05;3.00;;;18.90;99.90;;;;;;6177012;23;20158;-89
2022/08/28 18:23:24;;;;;;;5.50;2.97;;;19.00;99.90;;;;;;6177143;23;20185;-89
2022/08/28 18:25:51;;;;;;;5.90;3.00;;;18.90;99.90;;;;;;6177666;23;20165;-89
2022/08/28 18:28:20;;;;;;;6.78;3.55;;;18.70;99.90;;;;;;6177109;23;20213;-89
2022/08/28 18:30:47;;;;;;;6.40;2.95;;;18.50;1.00;;;;;;6177304;23;20620;-89
2022/08/28 18:33:15;;;;;;;5.55;2.97;;;18.50;1.00;;;;;;6176850;23;20248;-89
2022/08/28 18:35:41;;;;;;;7.07;3.55;;;18.50;1.00;;;;;;6177332;23;20193;-89
2022/08/28 18:38:08;;;;;;;5.40;3.20;;;18.50;1.00;;;;;;6177246;23;20180;-89
2022/08/28 18:40:33;;;;;;;5.15;3.22;;;18.40;1.00;;;;;;6176796;23;20169;-89
2022/08/28 18:42:59;;;;;;;6.20;2.95;;;18.30;1.00;;;;;;6176928;23;20182;-89
2022/08/28 18:45:25;;;;;;;7.32;3.63;;;18.20;1.00;;;;;;6176997;23;20273;-88
2022/08/28 18:47:51;;;;;;;6.47;3.28;;;18.20;1.00;;;;;;6177402;23;20166;-89
2022/08/28 18:50:20;;;;;;;5.25;2.90;;;18.10;1.00;;;;;;6176819;23;20166;-90
2022/08/28 18:52:47;;;;;;;7.22;3.40;;;18.10;1.00;;;;;;6177074;23;20194;-89
2022/08/28 18:55:13;;;;;;;5.90;3.10;;;18.30;1.00;;;;;;6177098;23;20630;-88
2022/08/28 18:57:39;;;;;;;6.72;3.50;;;17.90;1.00;;;;;;6203981;23;20233;-89
2022/08/28 19:00:06;;;;;;;6.13;2.92;;;17.80;1.00;;;;;;6203593;23;20181;-89
2022/08/28 19:02:32;;;;;;;5.82;3.20;;;17.80;1.00;;;;;;6177268;23;20167;-89
2022/08/28 19:04:57;;;;;;;8.60;3.53;;;17.70;1.00;;;;;;6177170;23;20158;-89
2022/08/28 19:07:23;;;;;;;6.25;3.08;;;17.80;1.00;;;;;;6203588;23;20165;-90
2022/08/28 19:09:48;;;;;;;7.18;3.60;;;17.70;1.00;;;;;;6176814;23;20166;-89
2022/08/28 19:12:14;;;;;;;4.60;3.22;;;17.60;99.90;;;;;;6176573;23;20458;-89
2022/08/28 19:14:39;;;;;;;6.70;3.05;;;17.40;99.90;;;;;;6177832;23;20253;-89
2022/08/28 19:17:05;;;;;;;5.03;3.45;;;17.50;99.90;;;;;;6178530;23;20503;-89
2022/08/28 19:19:32;;;;;;;6.28;3.60;;;17.40;99.90;;;;;;6179045;23;20193;-89
2022/08/28 19:21:59;;;;;;;6.20;3.45;;;17.40;99.90;;;;;;6178412;23;20599;-89
2022/08/28 19:24:32;;;;;;;6.18;3.65;;;17.40;99.90;;;;;;6205345;23;20181;-90
2022/08/28 19:26:59;;;;;;;5.95;3.28;;;17.50;99.90;;;;;;6178462;23;20165;-89
2022/08/28 19:29:24;;;;;;;7.93;3.88;;;17.20;99.90;;;;;;6178811;23;20181;-89
2022/08/28 19:31:51;;;;;;;6.68;3.70;;;17.20;1.00;;;;;;6204801;23;20255;-89
2022/08/28 19:34:17;;;;;;;4.97;3.70;;;17.00;1.00;;;;;;6178579;23;20178;-90
2022/08/28 19:36:43;;;;;;;5.03;3.60;;;18.10;1.00;;;;;;6178406;23;20155;-89
2022/08/28 19:39:08;;;;;;;5.72;3.22;;;17.30;1.00;;;;;;6178141;23;20184;-89
2022/08/28 19:41:35;;;;;;;6.78;3.38;;;16.90;1.00;;;;;;6179953;23;20158;-90
2022/08/28 19:44:02;;;;;;;8.05;3.92;;;16.70;99.90;;;;;;6180866;23;20186;-88
2022/08/28 19:46:27;;;;;;;7.95;3.58;;;16.70;99.90;;;;;;6180593;23;20205;-89
2022/08/28 19:48:53;;;;;;;7.15;3.55;;;16.60;1.00;;;;;;6180908;23;20159;-89
2022/08/28 19:51:21;;;;;;;6.55;3.90;;;16.60;1.00;;;;;;6180077;23;20189;-90
2022/08/28 19:53:48;;;;;;;5.40;3.40;;;16.50;16.90;;;;;;6180620;23;20178;-89
2022/08/28 19:56:14;;;;;;;6.50;3.90;;;16.40;99.90;;;;;;6180777;23;20196;-90
2022/08/28 19:58:40;;;;;;;5.72;3.42;;;16.30;1.00;;;;;;6180776;23;20165;-90
2022/08/28 20:01:06;;;;;;;5.85;3.30;;;16.20;1.00;;;;;;6182929;23;20158;-90
2022/08/28 20:03:31;;;;;;;8.07;3.67;;;16.40;60.20;;;;;;6180755;23;20638;-89
2022/08/28 20:06:02;;;;;;;5.63;3.20;;;16.20;1.00;;;;;;6180494;23;20162;-89
2022/08/28 20:08:28;;;;;;;5.70;3.47;;;16.20;1.00;;;;;;6207284;23;20146;-89
2022/08/28 20:10:54;;;;;;;8.43;3.50;;;16.20;13.70;;;;;;6180495;23;20193;-90
2022/08/28 20:13:20;;;;;;;6.57;3.78;;;16.20;82.20;;;;;;6206477;23;20296;-89
2022/08/28 20:15:51;;;;;;;6.53;3.55;;;16.10;99.90;;;;;;6180571;23;20154;-89
2022/08/28 20:18:17;;;;;;;7.70;3.75;;;16.00;99.90;;;;;;6179570;23;20233;-89
2022/08/28 20:20:47;;;;;;;5.63;3.50;;;16.00;18.20;;;;;;6178371;23;20248;-89
2022/08/28 20:23:14;;;;;;;5.60;3.22;;;15.80;1.00;;;;;;6180761;23;20182;-90
2022/08/28 20:25:45;;;;;;;8.10;3.85;;;15.90;76.20;;;;;;6183745;23;20170;-90
2022/08/28 20:31:35;;;;;;;6.50;3.60;;;15.80;99.90;;;;;;6209182;23;20587;-89
2022/08/28 20:34:01;;;;;;;5.38;3.40;;;15.70;1.00;;;;;;6182675;23;20253;-89
2022/08/28 20:36:27;;;;;;;6.20;3.85;;;15.70;99.90;;;;;;6183253;23;20534;-90
2022/08/28 20:38:53;;;;;;;6.20;3.53;;;15.60;99.90;;;;;;6184185;23;20202;-90
2022/08/28 20:41:19;;;;;;;7.00;3.58;;;15.60;1.00;;;;;;6183496;23;20162;-90
2022/08/28 20:43:46;;;;;;;7.85;3.72;;;15.60;1.00;;;;;;6185409;23;20174;-90
2022/08/28 20:46:13;;;;;;;6.28;3.40;;;15.60;1.00;;;;;;6184368;23;20154;-90
2022/08/28 20:48:39;;;;;;;7.10;3.40;;;15.50;1.00;;;;;;6185537;23;20418;-91
2022/08/28 20:51:06;;;;;;;6.78;4.00;;;15.00;1.00;;;;;;6211686;23;20177;-90
2022/08/28 20:53:32;;;;;;;6.65;4.10;;;15.40;1.00;;;;;;6184753;23;20198;-90
2022/08/28 20:56:00;;;;;;;6.13;3.60;;;15.00;99.90;;;;;;6184997;23;20162;-90
2022/08/28 20:58:26;;;;;;;7.57;4.20;;;16.20;99.90;;;;;;6184643;23;20193;-90
2022/08/28 21:00:53;;;;;;;6.57;3.65;;;15.70;1.00;;;;;;6185203;23;20253;-90
2022/08/28 21:03:19;;;;;;;7.03;4.13;;;15.50;99.90;;;;;;6185310;23;20182;-90
2022/08/28 21:05:45;;;;;;;5.93;3.72;;;15.40;1.00;;;;;;6185311;23;20167;-90
2022/08/28 21:08:11;;;;;;;5.20;3.35;;;15.30;99.90;;;;;;6185260;23;20549;-90
2022/08/28 21:10:40;;;;;;;8.20;3.72;;;15.20;1.00;;;;;;6184673;23;20159;-90
2022/08/28 21:13:06;;;;;;;6.78;3.63;;;15.10;99.90;;;;;;6183545;23;20201;-91
2022/08/28 21:15:33;;;;;;;9.02;4.03;;;15.10;99.90;;;;;;6183514;23;20154;-90
2022/08/28 21:17:59;;;;;;;6.80;3.67;;;15.20;1.00;;;;;;6184171;23;20481;-90
2022/08/28 21:20:25;;;;;;;6.85;3.67;;;15.30;1.00;;;;;;6183810;23;20180;-90
2022/08/28 21:22:51;;;;;;;7.93;4.28;;;15.20;1.00;;;;;;6183633;23;20209;-90
2022/08/28 21:25:19;;;;;;;8.10;3.65;;;15.00;1.00;;;;;;6183946;23;20162;-89
2022/08/28 21:27:46;;;;;;;5.82;3.28;;;14.90;1.00;;;;;;6210398;23;20158;-90
2022/08/28 21:30:14;;;;;;;6.63;4.05;;;14.90;1.00;;;;;;6183360;23;20166;-89
2022/08/28 21:32:40;;;;;;;6.60;3.65;;;14.80;1.00;;;;;;6182985;23;20208;-90
2022/08/28 21:35:07;;;;;;;7.78;4.05;;;14.80;1.00;;;;;;6183199;23;20598;-90
2022/08/28 21:37:33;;;;;;;8.75;3.70;;;14.80;1.00;;;;;;6182697;23;20200;-89
2022/08/28 21:39:59;;;;;;;8.18;4.10;;;14.70;99.90;;;;;;6183239;23;20150;-90
2022/08/28 21:42:25;;;;;;;8.05;3.95;;;14.70;99.90;;;;;;6182867;23;20155;-90
2022/08/28 21:44:53;;;;;;;7.45;4.13;;;14.60;1.00;;;;;;6183503;23;20169;-90
2022/08/28 21:47:21;;;;;;;8.30;3.70;;;14.60;1.00;;;;;;6209830;23;20521;-90
2022/08/28 21:49:48;;;;;;;8.15;3.92;;;14.60;99.90;;;;;;6183365;23;20187;-90
2022/08/28 21:52:14;;;;;;;7.00;3.78;;;14.60;99.90;;;;;;6183400;23;20186;-90
2022/08/28 21:54:40;;;;;;;5.75;3.88;;;14.50;1.00;;;;;;6183007;23;20185;-90
2022/08/28 21:57:05;;;;;;;8.85;4.10;;;14.40;1.00;;;;;;6182642;23;20197;-90
2022/08/28 21:59:32;;;;;;;5.95;3.63;;;14.70;84.30;;;;;;6182973;23;20165;-90
2022/08/28 22:01:58;;;;;;;5.97;3.65;;;14.10;99.90;;;;;;6182419;23;20164;-90
2022/08/28 22:04:24;;;;;;;8.38;3.97;;;14.00;99.90;;;;;;6182419;23;20174;-90
2022/08/28 22:06:49;;;;;;;5.90;3.83;;;14.00;99.90;;;;;;6182662;23;20170;-90
2022/08/28 22:09:15;;;;;;;6.55;3.40;;;14.00;1.00;;;;;;6182269;23;20170;-90
2022/08/28 22:11:40;;;;;;;6.00;3.90;;;13.90;7.40;;;;;;6208801;23;20952;-90
2022/08/28 22:14:06;;;;;;;7.47;3.45;;;13.90;22.10;;;;;;6181978;23;20205;-90